Disclaimer

Please do not use the information listed here in-flight or in-navigation, as they are not provided to us by the airports but are provided by volunteers, so they might be outdated.

Search


Regions


Airport information page

Radio informations:
Ground (GND) - 121.9 MHz
ALDEIA APP - 119.45 MHz

Airport informations:
Latitude: 22° 48' 46.34" S
Longitude: 042° 05' 33.48" W
Elevation: 61 feet - 19 meters
Operating hours: N/A
Operating agency: Military
Timezone: UTC-3(-2DT)
Fuel: Jet A1, without icing nhibitor.

Runway information:
07/25 - 7875 x 92 feet< - >2400 x 28 meters

Recent METARs:
SBES 122000Z 07017KT 9999 FEW025 26/20 Q1013
SBES 122000Z 07017KT 9999 FEW025 26/20 Q1013
SBES 122100Z 07015KT 9999 FEW025 25/21 Q1013

Airport on the map: